Pettibone, Texas
Current Conditions -  °F | °C
As of 8:55 PM on Tuesday 25 Nov 2014 (Local Time) from KT35 Reporting Station
Clear Clear  
Wind Chill: 47°   Ceiling: Unl
Heat Index: 49°   Visibility: 10mi
Dew Point: 32°   Wind: 5mph
Humidity: 52%   Direction: 190°S
Pressure: 30.2"   Gusts: NA
Location:  30.8332°N, 96.9826°W
Report Text: KT35 260255Z AUTO 19004KT 10SM CLR 10/00 A3020 RMK AO2 T00950000
Loading
Personal Weather Stations






























Interactive Weather Map New forecast layout! Learn more

10-Day Weather Forecast

Advertisements
Track Severe Weather on mobile